createdAt,value
2022-11-09T00:00:53.771Z,32.43
2022-11-09T00:03:20.882Z,32.40
2022-11-09T00:05:59.019Z,36.17
2022-11-09T00:08:26.095Z,39.13
2022-11-09T00:10:53.117Z,38.87
2022-11-09T00:13:20.256Z,42.67
2022-11-09T00:15:47.350Z,48.13
2022-11-09T00:18:14.301Z,55.03
2022-11-09T00:20:47.251Z,54.67
2022-11-09T00:23:18.225Z,49.13
2022-11-09T00:25:45.686Z,44.43
2022-11-09T00:28:12.553Z,51.73
2022-11-09T00:30:40.167Z,48.53
2022-11-09T00:33:08.819Z,44.43
2022-11-09T00:35:38.623Z,40.03
2022-11-09T00:38:05.603Z,39.03
2022-11-09T00:40:32.714Z,39.60
2022-11-09T00:42:59.793Z,39.80
2022-11-09T00:45:26.691Z,38.07
2022-11-09T00:47:53.660Z,39.30
2022-11-09T00:50:20.567Z,37.60
2022-11-09T00:52:48.603Z,39.60
2022-11-09T00:55:16.669Z,37.90
2022-11-09T00:57:43.615Z,39.10
2022-11-09T01:00:11.426Z,40.10
2022-11-09T01:02:38.373Z,55.13
2022-11-09T01:05:05.670Z,47.57
2022-11-09T01:07:32.617Z,57.33
2022-11-09T01:09:59.529Z,51.57
2022-11-09T01:12:26.520Z,48.33
2022-11-09T01:14:53.355Z,46.17
2022-11-09T01:17:20.537Z,46.07
2022-11-09T01:19:47.543Z,46.17
2022-11-09T01:22:15.573Z,48.10
2022-11-09T01:24:42.545Z,49.27
2022-11-09T01:27:09.531Z,53.40
2022-11-09T01:29:36.816Z,62.83
2022-11-09T01:32:04.331Z,59.63
2022-11-09T01:34:32.339Z,57.10
2022-11-09T01:37:02.354Z,55.07
2022-11-09T01:39:30.471Z,52.30
2022-11-09T01:41:57.404Z,52.20
2022-11-09T01:44:27.598Z,47.37
2022-11-09T01:47:23.431Z,45.73
2022-11-09T01:50:00.178Z,46.07
2022-11-09T01:52:34.878Z,50.63
2022-11-09T01:55:17.022Z,47.80
2022-11-09T01:57:50.226Z,44.43
2022-11-09T02:00:18.334Z,41.00
2022-11-09T02:02:53.051Z,40.67
2022-11-09T02:05:23.993Z,40.77
2022-11-09T02:07:53.991Z,40.17
2022-11-09T02:10:29.348Z,39.23
2022-11-09T02:13:00.195Z,40.20
2022-11-09T02:15:28.767Z,39.80
2022-11-09T02:17:57.258Z,40.60
2022-11-09T02:20:25.310Z,40.67
2022-11-09T02:22:52.256Z,39.10
2022-11-09T02:25:20.952Z,42.63
2022-11-09T02:27:49.839Z,46.30
2022-11-09T02:30:20.835Z,44.07
2022-11-09T02:32:48.651Z,45.97
2022-11-09T02:35:15.499Z,45.77
2022-11-09T02:37:48.560Z,48.57
2022-11-09T02:40:27.192Z,52.67
2022-11-09T02:42:54.970Z,61.27
2022-11-09T02:45:21.815Z,55.23
2022-11-09T02:47:48.785Z,56.57
2022-11-09T02:50:15.859Z,56.97
2022-11-09T02:52:42.806Z,55.67
2022-11-09T02:55:10.364Z,55.57
2022-11-09T02:57:38.485Z,53.00
2022-11-09T03:00:06.200Z,53.10
2022-11-09T03:02:35.956Z,56.53
2022-11-09T03:05:03.293Z,51.87
2022-11-09T03:07:30.706Z,52.00
2022-11-09T03:09:57.790Z,51.47
2022-11-09T03:12:29.131Z,51.70
2022-11-09T03:15:05.287Z,52.80
2022-11-09T03:17:33.589Z,53.67
2022-11-09T03:20:00.600Z,49.53
2022-11-09T03:22:29.187Z,49.43
2022-11-09T03:24:56.534Z,45.63
2022-11-09T03:27:24.419Z,40.93
2022-11-09T03:29:51.481Z,45.13
2022-11-09T03:32:19.532Z,48.27
2022-11-09T03:34:47.061Z,46.80
2022-11-09T03:37:15.399Z,44.27
2022-11-09T03:39:43.457Z,47.77
2022-11-09T03:42:10.558Z,45.87
2022-11-09T03:44:39.064Z,31.50
2022-11-09T03:47:06.017Z,34.07
2022-11-09T03:49:32.847Z,48.27
2022-11-09T03:51:59.859Z,48.43
2022-11-09T03:54:26.829Z,46.83
2022-11-09T03:56:53.866Z,47.57
2022-11-09T03:59:20.747Z,47.57
2022-11-09T04:01:48.361Z,46.37
2022-11-09T04:04:15.429Z,47.70
2022-11-09T04:06:42.739Z,48.40
2022-11-09T04:09:10.586Z,48.67
2022-11-09T04:11:37.555Z,49.00
2022-11-09T04:14:04.375Z,49.67
2022-11-09T04:16:31.501Z,50.03
2022-11-09T04:18:58.365Z,46.53
2022-11-09T04:21:25.340Z,47.30
2022-11-09T04:23:52.297Z,48.47
2022-11-09T04:26:19.384Z,47.83
2022-11-09T04:28:46.250Z,45.20
2022-11-09T04:31:13.386Z,47.10
2022-11-09T04:33:40.272Z,47.37
2022-11-09T04:36:07.680Z,47.07
2022-11-09T04:38:36.505Z,48.37
2022-11-09T04:41:04.602Z,47.70
2022-11-09T04:43:31.507Z,47.50
2022-11-09T04:46:02.856Z,48.83
2022-11-09T04:48:31.410Z,48.60
2022-11-09T04:51:07.036Z,49.20
2022-11-09T04:53:35.713Z,50.10
2022-11-09T04:56:04.435Z,49.40
2022-11-09T04:58:31.787Z,47.90
2022-11-09T05:01:11.060Z,49.77
2022-11-09T05:03:38.604Z,47.77
2022-11-09T05:06:26.267Z,49.57
2022-11-09T05:08:54.450Z,47.17
2022-11-09T05:11:22.578Z,49.17
2022-11-09T05:13:51.576Z,55.57
2022-11-09T05:16:19.587Z,54.93
2022-11-09T05:18:46.989Z,49.27
2022-11-09T05:21:14.051Z,52.50
2022-11-09T05:23:59.468Z,46.50
2022-11-09T05:26:32.617Z,51.47
2022-11-09T05:29:01.514Z,44.83
2022-11-09T05:31:29.166Z,44.67
2022-11-09T05:33:56.923Z,43.53
2022-11-09T05:36:24.679Z,44.37
2022-11-09T05:38:51.688Z,43.77
2022-11-09T05:41:18.540Z,45.93
2022-11-09T05:43:46.306Z,46.87
2022-11-09T05:46:17.678Z,42.77
2022-11-09T05:48:45.221Z,41.50
2022-11-09T05:51:14.546Z,42.60
2022-11-09T05:53:46.048Z,42.57
2022-11-09T05:56:14.580Z,45.07
2022-11-09T05:58:42.175Z,43.67
2022-11-09T06:01:15.706Z,45.57
2022-11-09T06:03:44.426Z,44.63
2022-11-09T06:06:13.509Z,42.80
2022-11-09T06:08:40.570Z,43.03
2022-11-09T06:11:10.655Z,43.60
2022-11-09T06:13:37.966Z,44.63
2022-11-09T06:16:06.268Z,43.47
2022-11-09T06:18:35.300Z,43.03
2022-11-09T06:21:03.944Z,43.87
2022-11-09T06:23:31.506Z,43.83
2022-11-09T06:26:00.140Z,42.23
2022-11-09T06:28:27.682Z,42.37
2022-11-09T06:30:58.111Z,40.53
2022-11-09T06:33:25.737Z,40.93
2022-11-09T06:35:56.333Z,41.93
2022-11-09T06:38:26.438Z,40.77
2022-11-09T06:40:58.646Z,41.10
2022-11-09T06:43:26.441Z,39.70
2022-11-09T06:45:53.703Z,39.70
2022-11-09T06:48:21.382Z,38.57
2022-11-09T06:50:48.266Z,38.17
2022-11-09T06:53:17.070Z,39.87
2022-11-09T06:55:49.026Z,39.27
2022-11-09T06:58:18.033Z,38.60
2022-11-09T07:00:45.403Z,38.70
2022-11-09T07:03:17.764Z,37.97
2022-11-09T07:05:45.640Z,38.88
2022-11-09T07:08:13.604Z,38.95
2022-11-09T07:10:41.219Z,39.38
2022-11-09T07:13:08.605Z,38.38
2022-11-09T07:15:37.485Z,40.10
2022-11-09T07:18:06.394Z,39.65
2022-11-09T07:20:33.746Z,37.92
2022-11-09T07:23:00.728Z,37.03
2022-11-09T07:25:28.111Z,37.72
2022-11-09T07:27:55.219Z,36.55
2022-11-09T07:30:22.734Z,37.47
2022-11-09T07:35:38.235Z,35.47
2022-11-09T07:38:05.964Z,36.58
2022-11-09T07:40:33.247Z,37.40
2022-11-09T07:43:01.058Z,37.20
2022-11-09T07:45:29.812Z,35.97
2022-11-09T07:48:07.832Z,36.55
2022-11-09T07:50:36.753Z,36.47
2022-11-09T07:53:05.541Z,36.55
2022-11-09T07:55:33.271Z,36.17
2022-11-09T07:58:01.794Z,37.00
2022-11-09T08:00:30.200Z,37.47
2022-11-09T08:02:57.604Z,35.83
2022-11-09T08:05:25.142Z,35.67
2022-11-09T08:07:59.602Z,35.15
2022-11-09T08:10:27.666Z,35.92
2022-11-09T08:12:59.192Z,36.67
2022-11-09T08:15:27.211Z,35.97
2022-11-09T08:17:54.731Z,35.22
2022-11-09T08:20:22.486Z,36.13
2022-11-09T08:22:49.760Z,36.55
2022-11-09T08:25:17.436Z,36.08
2022-11-09T08:27:44.685Z,35.33
2022-11-09T08:30:16.679Z,36.95
2022-11-09T08:32:45.281Z,35.67
2022-11-09T08:35:17.649Z,35.78
2022-11-09T08:37:46.897Z,35.78
2022-11-09T08:40:15.401Z,35.95
2022-11-09T08:42:43.068Z,35.00
2022-11-09T08:45:10.741Z,34.30
2022-11-09T08:47:39.507Z,33.83
2022-11-09T08:50:07.797Z,34.70
2022-11-09T08:52:35.631Z,35.08
2022-11-09T08:55:03.585Z,33.95
2022-11-09T08:57:31.605Z,34.85
2022-11-09T08:59:59.158Z,34.90
2022-11-09T09:02:26.507Z,35.20
2022-11-09T09:04:53.772Z,36.58
2022-11-09T09:07:21.289Z,35.58
2022-11-09T09:09:49.148Z,35.47
2022-11-09T09:12:16.531Z,36.42
2022-11-09T09:14:43.917Z,35.40
2022-11-09T09:17:11.623Z,34.53
2022-11-09T09:19:38.945Z,34.65
2022-11-09T09:22:06.308Z,32.28
2022-11-09T09:24:33.870Z,32.65
2022-11-09T09:27:01.344Z,35.70
2022-11-09T09:29:28.852Z,31.63
2022-11-09T09:31:56.153Z,31.73
2022-11-09T09:34:23.230Z,31.27
2022-11-09T09:36:53.680Z,31.48
2022-11-09T09:39:21.494Z,33.08
2022-11-09T09:42:00.865Z,31.65
2022-11-09T09:44:40.047Z,31.83
2022-11-09T09:47:18.986Z,30.58
2022-11-09T09:50:06.103Z,31.70
2022-11-09T09:53:18.084Z,30.42
2022-11-09T09:55:50.535Z,27.88
2022-11-09T09:58:28.687Z,28.75
2022-11-09T10:01:12.752Z,28.35
2022-11-09T10:03:39.900Z,28.73
2022-11-09T10:06:24.646Z,28.10
2022-11-09T10:09:41.942Z,26.33
2022-11-09T10:12:34.705Z,26.75
2022-11-09T10:15:14.052Z,26.67
2022-11-09T10:18:21.221Z,24.60
2022-11-09T10:20:52.986Z,24.02
2022-11-09T10:23:45.382Z,23.58
2022-11-09T10:26:51.030Z,22.00
2022-11-09T10:29:27.562Z,21.60
2022-11-09T10:32:01.423Z,21.77
2022-11-09T10:34:36.092Z,20.85
2022-11-09T10:37:39.895Z,20.83
2022-11-09T10:40:19.403Z,19.35
2022-11-09T10:43:15.758Z,17.67
2022-11-09T10:46:05.636Z,15.60
2022-11-09T10:48:55.690Z,15.07
2022-11-09T10:51:43.349Z,15.13
2022-11-09T10:54:34.760Z,13.60
2022-11-09T10:57:23.399Z,13.50
2022-11-09T11:00:18.185Z,12.68
2022-11-09T11:03:20.422Z,12.40
2022-11-09T11:06:18.920Z,12.10
2022-11-09T11:09:07.757Z,12.63
2022-11-09T11:12:14.347Z,12.60
2022-11-09T11:15:01.243Z,12.25
2022-11-09T11:17:47.118Z,13.15
2022-11-09T11:20:35.327Z,13.50
2022-11-09T11:23:26.560Z,12.98
2022-11-09T11:26:32.168Z,12.70
2022-11-09T11:29:33.956Z,14.07
2022-11-09T11:32:20.748Z,13.18
2022-11-09T11:35:18.345Z,12.88
2022-11-09T11:38:22.669Z,13.55
2022-11-09T11:41:24.992Z,14.15
2022-11-09T11:44:41.517Z,13.65
2022-11-09T11:47:58.384Z,14.38
2022-11-09T11:50:51.863Z,15.55
2022-11-09T11:54:14.139Z,17.38
2022-11-09T11:57:17.853Z,16.10
2022-11-09T12:00:10.065Z,16.13
2022-11-09T12:03:15.936Z,15.57
2022-11-09T12:06:15.598Z,14.95
2022-11-09T12:09:04.068Z,14.38
2022-11-09T12:12:07.665Z,14.05
2022-11-09T12:14:56.444Z,14.05
2022-11-09T12:17:41.801Z,13.52
2022-11-09T12:20:52.377Z,13.73
2022-11-09T12:23:56.846Z,14.38
2022-11-09T12:27:25.652Z,13.95
2022-11-09T12:30:18.509Z,13.07
2022-11-09T12:33:07.608Z,11.73
2022-11-09T12:35:59.995Z,10.93
2022-11-09T12:38:54.598Z,11.18
2022-11-09T12:41:40.963Z,11.43
2022-11-09T12:44:37.077Z,11.27
2022-11-09T12:47:30.073Z,11.05
2022-11-09T12:50:22.069Z,11.40
2022-11-09T12:53:09.040Z,11.02
2022-11-09T12:56:10.158Z,11.10
2022-11-09T12:59:46.536Z,10.88
2022-11-09T13:02:38.232Z,10.95
2022-11-09T13:05:37.587Z,11.07
2022-11-09T13:08:31.329Z,11.88
2022-11-09T13:11:21.844Z,11.02
2022-11-09T13:14:22.786Z,11.63
2022-11-09T13:17:26.373Z,11.52
2022-11-09T13:20:54.882Z,12.48
2022-11-09T13:26:47.712Z,11.60
2022-11-09T13:29:39.427Z,11.18
2022-11-09T13:32:28.009Z,10.70
2022-11-09T13:35:41.331Z,10.55
2022-11-09T13:38:30.295Z,11.27
2022-11-09T13:41:34.269Z,10.68
2022-11-09T13:44:26.827Z,11.60
2022-11-09T13:47:25.401Z,11.15
2022-11-09T13:50:26.905Z,11.77
2022-11-09T13:53:30.636Z,11.02
2022-11-09T13:56:28.658Z,11.80
2022-11-09T13:59:27.120Z,11.55
2022-11-09T14:02:25.642Z,11.77
2022-11-09T14:05:35.033Z,11.70
2022-11-09T14:08:25.926Z,11.95
2022-11-09T14:11:14.495Z,12.90
2022-11-09T14:14:24.889Z,11.88
2022-11-09T14:17:27.395Z,11.98
2022-11-09T14:20:45.623Z,12.93
2022-11-09T14:23:32.987Z,11.57
2022-11-09T14:26:24.355Z,12.00
2022-11-09T14:29:24.420Z,11.75
2022-11-09T14:32:26.677Z,10.75
2022-11-09T14:35:35.129Z,11.32
2022-11-09T14:38:24.097Z,11.38
2022-11-09T14:41:22.477Z,11.95
2022-11-09T14:44:17.519Z,11.05
2022-11-09T14:47:04.818Z,11.00
2022-11-09T14:49:50.857Z,12.35
2022-11-09T14:52:36.639Z,11.10
2022-11-09T14:55:24.286Z,12.50
2022-11-09T14:58:14.274Z,11.40
2022-11-09T15:01:17.992Z,10.77
2022-11-09T15:04:20.274Z,11.10
2022-11-09T15:07:06.101Z,11.30
2022-11-09T15:10:14.240Z,10.48
2022-11-09T15:13:03.305Z,11.13
2022-11-09T15:15:54.258Z,11.15
2022-11-09T15:18:45.431Z,12.82
2022-11-09T15:21:30.955Z,11.85
2022-11-09T15:24:19.247Z,12.55
2022-11-09T15:27:29.210Z,12.75
2022-11-09T15:30:31.000Z,11.43
2022-11-09T15:33:20.162Z,12.25
2022-11-09T15:36:19.813Z,12.65
2022-11-09T15:39:18.397Z,13.13
2022-11-09T15:42:04.278Z,13.77
2022-11-09T15:44:55.935Z,14.15
2022-11-09T15:47:49.267Z,16.42
2022-11-09T15:50:34.773Z,16.63
2022-11-09T15:53:20.798Z,15.40
2022-11-09T15:56:06.829Z,17.35
2022-11-09T15:58:53.566Z,18.48
2022-11-09T16:01:40.127Z,18.27
2022-11-09T16:04:25.538Z,17.85
2022-11-09T16:07:14.595Z,18.05
2022-11-09T16:10:00.762Z,17.38
2022-11-09T16:12:47.469Z,17.38
2022-11-09T16:15:35.626Z,17.48
2022-11-09T16:18:25.633Z,17.40
2022-11-09T16:21:14.421Z,17.65
2022-11-09T16:24:00.164Z,18.13
2022-11-09T16:26:46.108Z,18.38
2022-11-09T16:29:32.794Z,18.55
2022-11-09T16:32:18.501Z,17.73
2022-11-09T16:35:26.073Z,17.55
2022-11-09T16:38:12.068Z,17.67
2022-11-09T16:41:00.889Z,17.88
2022-11-09T16:43:48.778Z,18.27
2022-11-09T16:46:35.304Z,17.42
2022-11-09T16:49:21.459Z,18.95
2022-11-09T16:52:07.385Z,19.13
2022-11-09T16:54:53.630Z,19.05
2022-11-09T16:57:39.843Z,19.75
2022-11-09T17:00:42.337Z,20.40
2022-11-09T17:03:31.834Z,19.65
2022-11-09T17:06:17.852Z,20.30
2022-11-09T17:09:03.367Z,20.08
2022-11-09T17:11:49.131Z,21.40
2022-11-09T17:14:34.685Z,20.17
2022-11-09T17:17:22.763Z,19.98
2022-11-09T17:20:09.596Z,20.15
2022-11-09T17:22:56.014Z,21.25
2022-11-09T17:25:41.865Z,18.85
2022-11-09T17:28:27.835Z,18.77
2022-11-09T17:31:16.764Z,18.92
2022-11-09T17:34:02.443Z,19.30
2022-11-09T17:37:03.728Z,23.00
2022-11-09T17:39:50.649Z,24.27
2022-11-09T17:42:36.893Z,23.65
2022-11-09T17:45:23.788Z,22.85
2022-11-09T17:48:09.153Z,22.88
2022-11-09T17:50:56.419Z,23.42
2022-11-09T17:53:43.151Z,29.50
2022-11-09T17:56:29.195Z,30.15
2022-11-09T17:59:14.687Z,32.20
2022-11-09T18:02:00.260Z,30.88
2022-11-09T18:04:45.604Z,35.08
2022-11-09T18:07:31.699Z,38.85
2022-11-09T18:10:17.631Z,38.78
2022-11-09T18:13:04.016Z,37.65
2022-11-09T18:15:50.036Z,39.53
2022-11-09T18:18:36.275Z,39.63
2022-11-09T18:21:23.760Z,40.33
2022-11-09T18:24:09.964Z,44.13
2022-11-09T18:26:55.825Z,43.85
2022-11-09T18:29:42.295Z,46.10
2022-11-09T18:32:28.413Z,44.03
2022-11-09T18:35:14.615Z,44.25
2022-11-09T18:38:00.945Z,46.67
2022-11-09T18:40:56.484Z,46.08
2022-11-09T18:43:42.789Z,46.20
2022-11-09T18:46:30.937Z,49.20
2022-11-09T18:49:18.002Z,46.10
2022-11-09T18:52:03.975Z,48.05
2022-11-09T18:54:50.200Z,50.05
2022-11-09T18:57:36.209Z,49.65
2022-11-09T19:00:22.207Z,49.28
2022-11-09T19:03:09.473Z,51.08
2022-11-09T19:05:55.665Z,51.42
2022-11-09T19:09:00.351Z,50.83
2022-11-09T19:11:46.475Z,50.72
2022-11-09T19:14:33.869Z,49.88
2022-11-09T19:17:20.068Z,52.95
2022-11-09T19:20:06.321Z,52.78
2022-11-09T19:22:52.232Z,50.80
2022-11-09T19:25:38.345Z,51.53
2022-11-09T19:28:24.278Z,50.90
2022-11-09T19:31:13.649Z,50.45
2022-11-09T19:34:00.269Z,51.50
2022-11-09T19:36:46.570Z,51.10
2022-11-09T19:39:34.631Z,49.20
2022-11-09T19:42:21.938Z,49.83
2022-11-09T19:45:09.506Z,48.75
2022-11-09T19:47:55.368Z,48.17
2022-11-09T19:50:46.908Z,46.88
2022-11-09T19:53:33.243Z,47.53
2022-11-09T19:56:19.852Z,46.72
2022-11-09T19:59:07.092Z,47.38
2022-11-09T20:01:53.289Z,47.78
2022-11-09T20:04:39.322Z,46.42
2022-11-09T20:07:25.166Z,45.70
2022-11-09T20:10:12.318Z,46.10
2022-11-09T20:12:58.669Z,46.75
2022-11-09T20:15:45.005Z,46.58
2022-11-09T20:18:31.082Z,48.60
2022-11-09T20:21:17.061Z,48.95
2022-11-09T20:24:03.018Z,50.63
2022-11-09T20:26:49.201Z,49.92
2022-11-09T20:29:34.623Z,51.28
2022-11-09T20:32:21.709Z,52.60
2022-11-09T20:35:07.832Z,52.55
2022-11-09T20:37:53.752Z,53.83
2022-11-09T20:40:39.296Z,54.45
2022-11-09T20:43:25.965Z,53.83
2022-11-09T20:46:17.417Z,52.85
2022-11-09T20:49:03.874Z,52.47
2022-11-09T20:51:49.697Z,54.50
2022-11-09T20:54:35.230Z,54.65
2022-11-09T20:57:21.535Z,55.10
2022-11-09T21:00:07.816Z,55.83
2022-11-09T21:02:53.353Z,55.95
2022-11-09T21:05:38.961Z,55.83
2022-11-09T21:08:24.975Z,61.45
2022-11-09T21:11:13.086Z,60.03
2022-11-09T21:13:58.762Z,56.67
2022-11-09T21:16:44.313Z,57.15
2022-11-09T21:19:29.941Z,57.47
2022-11-09T21:22:15.553Z,57.60
2022-11-09T21:25:19.520Z,58.65
2022-11-09T21:28:24.054Z,54.42
2022-11-09T21:31:10.513Z,58.55
2022-11-09T21:33:56.507Z,58.58
2022-11-09T21:36:43.660Z,60.97
2022-11-09T21:39:29.579Z,63.78
2022-11-09T21:42:15.106Z,63.47
2022-11-09T21:45:00.886Z,65.97
2022-11-09T21:47:46.601Z,64.40
2022-11-09T21:50:32.066Z,66.88
2022-11-09T21:53:17.583Z,67.95
2022-11-09T21:56:06.454Z,69.57
2022-11-09T21:58:52.076Z,73.95
2022-11-09T22:01:38.056Z,74.32
2022-11-09T22:04:23.386Z,73.53
2022-11-09T22:07:09.631Z,73.97
2022-11-09T22:10:11.507Z,74.28
2022-11-09T22:13:15.907Z,76.10
2022-11-09T22:16:09.402Z,77.03
2022-11-09T22:19:13.188Z,81.68
2022-11-09T22:21:58.993Z,84.95
2022-11-09T22:24:45.132Z,83.40
2022-11-09T22:27:32.182Z,88.20
2022-11-09T22:30:17.710Z,97.13
2022-11-09T22:33:03.241Z,98.00
2022-11-09T22:35:56.879Z,101.17
2022-11-09T22:38:42.351Z,100.87
2022-11-09T22:41:27.905Z,104.50
2022-11-09T22:44:13.454Z,103.60
2022-11-09T22:46:59.350Z,108.83
2022-11-09T22:49:45.066Z,113.53
2022-11-09T22:52:30.429Z,119.73
2022-11-09T22:55:16.275Z,116.83
2022-11-09T22:58:01.408Z,117.53
2022-11-09T23:00:47.094Z,115.97
2022-11-09T23:03:33.057Z,115.63
2022-11-09T23:06:21.358Z,112.97
2022-11-09T23:09:07.226Z,113.00
2022-11-09T23:11:52.930Z,112.73
2022-11-09T23:14:56.973Z,113.23
2022-11-09T23:18:00.887Z,107.30
2022-11-09T23:20:48.078Z,108.67
2022-11-09T23:23:34.599Z,104.90
2022-11-09T23:26:21.631Z,102.73
2022-11-09T23:29:07.298Z,105.97
2022-11-09T23:31:52.749Z,100.40
2022-11-09T23:34:38.284Z,105.53
2022-11-09T23:37:23.730Z,98.67
2022-11-09T23:40:10.485Z,100.53
2022-11-09T23:43:01.185Z,101.87
2022-11-09T23:45:46.912Z,99.63
2022-11-09T23:48:32.782Z,97.13
2022-11-09T23:51:18.717Z,97.90
2022-11-09T23:54:04.377Z,92.37
2022-11-09T23:56:49.896Z,88.80
2022-11-09T23:59:35.310Z,89.67
